Currently 57°F in Temecula, California, USA
57°F
70°F / 35°F
calm
0.00"
Wednesday, January 23, 2019 6:42 PM PST

Temecula, California Weather Summary
Last 36 Hours

Temperature Winds Hourly Humidity Dewpoint
Time Report Norm Report Norm Max Gusts Precip. Rpt. Norm Rpt. Norm Pressure
1Wed 06:42 PM  57.0°F  57°F  calm  2 mph  6 mph  0.00"  58%  63%  42°F  44°F  30.15"
Wed 06:00 PM  59.4°F  58°F  5 mph SE  3 mph  6 mph  0.00"  53%  59%  42°F  44°F  30.14"
Wed 05:00 PM  66.1°F  62°F  calm  4 mph  8 mph  0.00"  40%  53%  40°F  44°F  30.14"
Wed 04:00 PM  68.2°F  65°F  calm  5 mph  7 mph  0.00"  29%  47%  34°F  44°F  30.13"
2Wed 03:26 PM  69.9°F  66°F  4 mph S  5 mph  6 mph  ----  31%  45%  37°F  43°F  30.13"
Wed 03:00 PM  69.2°F  67°F  3 mph W  5 mph  7 mph  0.00"  23%  43%  28°F  43°F  30.13"
Wed 02:00 PM  69.7°F  67°F  1 mph NE  5 mph  7 mph  0.00"  24%  42%  30°F  43°F  30.16"
Wed 01:00 PM  65.9°F  66°F  5 mph W  5 mph  7 mph  0.00"  27%  44%  30°F  43°F  30.20"
Wed 12:00 PM  61.2°F  63°F  calm  4 mph  7 mph  0.00"  34%  49%  32°F  43°F  30.28"
Wed 11:00 AM  57.1°F  59°F  calm  3 mph  5 mph  0.00"  44%  58%  35°F  44°F  30.34"
Wed 10:00 AM  50.4°F  54°F  1 mph W  2 mph  7 mph  0.00"  55%  69%  34°F  43°F  30.36"
Wed 09:00 AM  43.1°F  48°F  calm  2 mph  4 mph  0.00"  68%  79%  33°F  42°F  30.37"
Wed 08:00 AM  36.2°F  44°F  calm  1 mph  3 mph  0.00"  82%  85%  31°F  40°F  30.36"
Wed 07:00 AM  35.1°F  43°F  calm  1 mph  3 mph  0.00"  82%  85%  30°F  39°F  30.36"
3Wed 06:35 AM  35.0°F  44°F  calm  1 mph  none  ----  83%  85%  30°F  39°F  30.35"
Wed 06:00 AM  35.7°F  44°F  2 mph E  1 mph  4 mph  0.00"  80%  85%  30°F  39°F  30.33"
Wed 05:00 AM  37.2°F  44°F  3 mph NE  1 mph  6 mph  0.00"  75%  84%  30°F  40°F  30.33"
Wed 04:00 AM  37.8°F  45°F  calm  1 mph  5 mph  0.00"  73%  83%  30°F  40°F  30.33"
Wed 03:00 AM  37.9°F  46°F  2 mph NE  1 mph  4 mph  0.00"  72%  82%  29°F  40°F  30.34"
Wed 02:00 AM  38.3°F  46°F  calm  1 mph  4 mph  0.00"  71%  80%  29°F  40°F  30.34"
Wed 01:00 AM  40.2°F  47°F  calm  1 mph  4 mph  0.00"  63%  79%  28°F  41°F  30.34"
Wed 12:00 AM  42.3°F  48°F  calm  1 mph  none  0.00"  61%  77%  29°F  41°F  30.34"
Tue 11:00 PM  44.5°F  50°F  calm  1 mph  6 mph  0.00"  52%  75%  27°F  42°F  30.33"
Tue 10:00 PM  47.2°F  51°F  4 mph W  1 mph  6 mph  0.00"  46%  73%  26°F  42°F  30.31"
Tue 09:00 PM  48.2°F  52°F  4 mph W  1 mph  6 mph  0.00"  45%  71%  27°F  43°F  30.31"
Tue 08:00 PM  52.4°F  54°F  3 mph NW  2 mph  8 mph  0.00"  32%  69%  22°F  43°F  30.27"
Tue 07:00 PM  52.3°F  56°F  5 mph NE  2 mph  8 mph  0.00"  40%  64%  27°F  44°F  30.27"
Tue 06:00 PM  56.4°F  59°F  calm  3 mph  9 mph  0.00"  33%  60%  26°F  44°F  30.27"
Tue 05:00 PM  59.9°F  62°F  3 mph SW  3 mph  13 mph  0.00"  28%  53%  25°F  44°F  30.24"
Tue 04:00 PM  61.7°F  66°F  4 mph NW  5 mph  15 mph  0.00"  23%  47%  22°F  44°F  30.20"
Tue 03:00 PM  64.1°F  67°F  calm  5 mph  11 mph  0.00"  25%  43%  26°F  43°F  30.18"
Tue 02:00 PM  63.5°F  68°F  4 mph S  5 mph  13 mph  0.00"  27%  42%  28°F  43°F  30.17"
Tue 01:00 PM  62.0°F  66°F  6 mph W  5 mph  17 mph  0.00"  30%  44%  29°F  43°F  30.17"
Tue 12:00 PM  59.9°F  64°F  5 mph SW  4 mph  12 mph  0.00"  33%  49%  30°F  43°F  30.21"
Tue 11:00 AM  58.1°F  60°F  7 mph W  3 mph  14 mph  0.00"  43%  58%  35°F  44°F  30.24"
Tue 10:00 AM  54.0°F  54°F  3 mph NE  2 mph  10 mph  0.00"  56%  68%  38°F  43°F  30.24"
Tue 09:00 AM  47.0°F  48°F  4 mph E  1 mph  9 mph  0.00"  74%  79%  39°F  42°F  30.24"
Tue 08:00 AM  40.1°F  44°F  calm  1 mph  7 mph  0.00"  88%  84%  37°F  40°F  30.22"
Tue 07:00 AM  37.4°F  43°F  1 mph W  1 mph  7 mph  0.00"  96%  85%  36°F  39°F  30.21"

  1. Current weather data. No green row appears if the current weather data is also the high or low for the current day.
  2. High temperature for the current day.
  3. Low temperature for the current day.

The Temecula weather pages are a service of WeatherCurrents. Temecula, California is located in the Temecula Valley, in southwestern Riverside County, along the Interstate 15 highway. The Temecula Valley's rolling hills are home to the Temecula wine country, vineyards, golf courses, a casino resort, and Old Town Temecula.
Copyright ©Wed Jan 23 18:42:32 PST 2019  WeatherCurrents. All rights reserved. - Submit questions and comments - Privacy Policy

This page automatically refreshes every 10 minutes.